Allons, Tennessee
Current Conditions -  °F | °C
As of 2:35 AM on Sunday 23 Nov 2014 (Local Time) from KSRB Reporting Station
Overcast Overcast  
Wind Chill: 55°   Ceiling: 5000
Heat Index: 55°   Visibility: 10mi
Dew Point: 43°   Wind: 15mph
Humidity: 63%   Direction: 180°S
Pressure: 30.04"   Gusts: NA
Location:  36.44°N, 85.34°W
Report Text: KSRB 230835Z AUTO 18013KT 10SM FEW036 OVC050 13/06 A3004 RMK
Loading
Personal Weather Stations






























Interactive Weather Map New forecast layout! Learn more

10-Day Weather Forecast

Advertisements
Track Severe Weather on mobile